createdAt,value
2022-12-20T00:02:26.715Z,98.16
2022-12-20T00:05:29.222Z,97.96
2022-12-20T00:08:31.508Z,98.31
2022-12-20T00:11:33.673Z,97.91
2022-12-20T00:14:35.748Z,98.19
2022-12-20T00:17:37.876Z,98.20
2022-12-20T00:20:40.111Z,97.68
2022-12-20T00:23:42.657Z,97.98
2022-12-20T00:26:44.765Z,98.27
2022-12-20T00:29:46.905Z,97.73
2022-12-20T00:32:48.931Z,97.81
2022-12-20T00:35:52.439Z,97.75
2022-12-20T00:38:56.752Z,97.62
2022-12-20T00:41:58.818Z,97.28
2022-12-20T00:45:00.923Z,97.84
2022-12-20T00:48:02.977Z,98.21
2022-12-20T00:51:11.517Z,97.91
2022-12-20T00:54:13.528Z,97.68
2022-12-20T00:57:15.572Z,97.88
2022-12-20T01:00:18.013Z,98.30
2022-12-20T01:03:20.871Z,97.93
2022-12-20T01:06:25.221Z,97.75
2022-12-20T01:09:27.250Z,98.22
2022-12-20T01:12:29.744Z,97.99
2022-12-20T01:15:31.788Z,97.80
2022-12-20T01:18:34.015Z,98.14
2022-12-20T01:21:36.350Z,97.96
2022-12-20T01:24:38.396Z,98.07
2022-12-20T01:27:40.495Z,98.15
2022-12-20T01:30:42.600Z,98.24
2022-12-20T01:33:46.835Z,98.22
2022-12-20T01:36:49.889Z,97.95
2022-12-20T01:39:52.096Z,98.24
2022-12-20T01:42:54.495Z,98.49
2022-12-20T01:45:56.683Z,97.98
2022-12-20T01:49:08.438Z,98.76
2022-12-20T01:52:33.423Z,98.08
2022-12-20T01:55:35.969Z,98.63
2022-12-20T01:58:39.575Z,98.66
2022-12-20T02:01:44.269Z,98.58
2022-12-20T02:04:46.822Z,98.72
2022-12-20T02:07:56.783Z,98.40
2022-12-20T02:11:16.429Z,98.70
2022-12-20T02:14:36.122Z,98.71
2022-12-20T02:17:58.984Z,99.18
2022-12-20T02:21:17.705Z,98.92
2022-12-20T02:24:47.937Z,98.32
2022-12-20T02:28:13.921Z,98.52
2022-12-20T02:31:21.943Z,98.32
2022-12-20T02:34:26.637Z,98.56
2022-12-20T02:37:28.743Z,98.42
2022-12-20T02:40:43.492Z,98.49
2022-12-20T02:44:11.735Z,98.36
2022-12-20T02:47:20.477Z,98.09
2022-12-20T02:50:36.403Z,98.43
2022-12-20T02:53:41.296Z,98.49
2022-12-20T02:57:37.180Z,98.23
2022-12-20T03:00:43.903Z,98.34
2022-12-20T03:03:46.002Z,98.18
2022-12-20T03:07:02.954Z,98.14
2022-12-20T03:10:05.360Z,98.28
2022-12-20T03:13:07.516Z,98.33
2022-12-20T03:16:11.964Z,97.97
2022-12-20T03:19:14.247Z,98.00
2022-12-20T03:22:16.332Z,98.21
2022-12-20T03:25:18.481Z,98.25
2022-12-20T03:28:21.053Z,98.05
2022-12-20T03:31:23.295Z,98.31
2022-12-20T03:34:30.179Z,98.11
2022-12-20T03:37:32.404Z,97.83
2022-12-20T03:40:36.719Z,97.97
2022-12-20T03:43:38.794Z,98.29
2022-12-20T03:46:41.332Z,98.25
2022-12-20T03:49:43.364Z,98.27
2022-12-20T03:52:46.804Z,98.03
2022-12-20T03:55:48.837Z,98.09
2022-12-20T03:58:51.288Z,98.15
2022-12-20T04:01:53.467Z,97.77
2022-12-20T04:04:55.748Z,97.89
2022-12-20T04:07:57.959Z,98.05
2022-12-20T04:11:18.071Z,98.33
2022-12-20T04:14:46.156Z,98.24
2022-12-20T04:17:48.809Z,97.87
2022-12-20T04:20:55.406Z,97.99
2022-12-20T04:24:04.199Z,97.95
2022-12-20T04:27:18.369Z,98.25
2022-12-20T04:30:20.615Z,97.91
2022-12-20T04:33:24.034Z,98.40
2022-12-20T04:36:26.436Z,98.27
2022-12-20T04:39:31.290Z,97.71
2022-12-20T04:42:50.034Z,97.85
2022-12-20T04:45:56.430Z,98.15
2022-12-20T04:49:00.122Z,97.79
2022-12-20T04:52:22.364Z,97.84
2022-12-20T04:55:25.127Z,98.19
2022-12-20T04:58:28.053Z,98.30
2022-12-20T05:01:30.328Z,98.07
2022-12-20T05:04:37.385Z,97.97
2022-12-20T05:07:40.851Z,97.84
2022-12-20T05:10:43.041Z,98.25
2022-12-20T05:13:45.193Z,97.89
2022-12-20T05:16:48.356Z,98.24
2022-12-20T05:19:50.602Z,98.09
2022-12-20T05:23:12.029Z,98.49
2022-12-20T05:26:20.086Z,98.42
2022-12-20T05:29:24.096Z,98.36
2022-12-20T05:32:26.571Z,98.69
2022-12-20T05:35:29.859Z,98.21
2022-12-20T05:38:39.710Z,98.50
2022-12-20T05:41:47.825Z,98.57
2022-12-20T05:44:49.856Z,98.92
2022-12-20T05:47:52.151Z,98.77
2022-12-20T05:50:54.510Z,98.79
2022-12-20T05:54:01.909Z,98.85
2022-12-20T05:57:16.879Z,98.99
2022-12-20T06:00:19.142Z,98.93
2022-12-20T06:03:23.447Z,98.46
2022-12-20T06:06:26.465Z,98.77
2022-12-20T06:09:30.558Z,98.65
2022-12-20T06:12:40.490Z,98.74
2022-12-20T06:15:42.598Z,98.89
2022-12-20T06:18:44.678Z,98.80
2022-12-20T06:21:48.318Z,98.97
2022-12-20T06:24:52.200Z,98.87
2022-12-20T06:27:59.195Z,99.07
2022-12-20T06:31:01.290Z,99.05
2022-12-20T06:34:14.225Z,99.32
2022-12-20T06:37:17.453Z,99.25
2022-12-20T06:40:19.797Z,99.15
2022-12-20T06:43:21.874Z,99.45
2022-12-20T06:46:24.054Z,99.21
2022-12-20T06:49:26.182Z,99.45
2022-12-20T06:52:28.678Z,99.35
2022-12-20T06:55:30.723Z,99.40
2022-12-20T06:58:32.956Z,99.62
2022-12-20T07:01:35.259Z,99.51
2022-12-20T07:04:38.086Z,99.21
2022-12-20T07:07:44.897Z,99.24
2022-12-20T07:10:47.967Z,99.47
2022-12-20T07:13:50.587Z,99.75
2022-12-20T07:16:52.722Z,99.34
2022-12-20T07:19:54.857Z,99.22
2022-12-20T07:22:57.048Z,99.15
2022-12-20T07:26:01.034Z,99.38
2022-12-20T07:29:03.158Z,99.28
2022-12-20T07:32:05.569Z,99.33
2022-12-20T07:35:08.204Z,99.15
2022-12-20T07:38:10.226Z,98.96
2022-12-20T07:41:18.519Z,98.76
2022-12-20T07:44:20.709Z,98.65
2022-12-20T07:47:23.130Z,99.33
2022-12-20T07:50:26.154Z,98.68
2022-12-20T07:53:32.143Z,98.90
2022-12-20T07:56:41.136Z,98.81
2022-12-20T07:59:50.483Z,98.45
2022-12-20T08:03:15.902Z,98.58
2022-12-20T08:06:18.984Z,98.61
2022-12-20T08:09:21.036Z,98.54
2022-12-20T08:12:23.853Z,98.51
2022-12-20T08:15:28.918Z,98.67
2022-12-20T08:18:32.000Z,98.33
2022-12-20T08:21:34.169Z,98.15
2022-12-20T08:24:36.276Z,98.25
2022-12-20T08:27:38.431Z,98.25
2022-12-20T08:30:40.575Z,97.91
2022-12-20T08:33:42.899Z,97.72
2022-12-20T08:36:45.802Z,97.59
2022-12-20T08:39:47.862Z,97.64
2022-12-20T08:42:49.949Z,97.31
2022-12-20T08:45:54.673Z,97.02
2022-12-20T08:48:56.719Z,97.15
2022-12-20T08:51:58.799Z,96.73
2022-12-20T08:55:01.990Z,97.01
2022-12-20T08:58:04.661Z,96.76
2022-12-20T09:01:09.397Z,96.78
2022-12-20T09:04:12.280Z,96.68
2022-12-20T09:07:14.500Z,96.72
2022-12-20T09:10:16.671Z,96.60
2022-12-20T09:13:18.872Z,96.73
2022-12-20T09:16:24.016Z,96.72
2022-12-20T09:19:26.161Z,96.46
2022-12-20T09:22:30.162Z,96.32
2022-12-20T09:25:33.403Z,96.01
2022-12-20T09:28:35.594Z,96.09
2022-12-20T09:31:37.934Z,96.10
2022-12-20T09:34:40.213Z,95.93
2022-12-20T09:37:42.265Z,96.02
2022-12-20T09:40:51.212Z,95.68
2022-12-20T09:43:53.929Z,95.65
2022-12-20T09:47:10.718Z,96.00
2022-12-20T09:50:18.053Z,95.87
2022-12-20T09:53:36.475Z,96.15
2022-12-20T09:56:47.122Z,96.44
2022-12-20T09:59:49.991Z,96.04
2022-12-20T10:03:08.654Z,95.70
2022-12-20T10:06:22.796Z,95.36
2022-12-20T10:09:38.293Z,95.83
2022-12-20T10:13:08.305Z,95.55
2022-12-20T10:16:13.436Z,95.79
2022-12-20T10:19:30.441Z,95.73
2022-12-20T10:22:46.534Z,95.94
2022-12-20T10:25:50.843Z,95.60
2022-12-20T10:28:54.673Z,95.85
2022-12-20T10:32:01.174Z,95.45
2022-12-20T10:35:26.963Z,95.43
2022-12-20T10:38:45.575Z,95.27
2022-12-20T10:41:50.204Z,95.16
2022-12-20T10:44:53.195Z,95.02
2022-12-20T10:48:00.327Z,95.12
2022-12-20T10:51:16.966Z,95.47
2022-12-20T10:54:46.384Z,95.38
2022-12-20T10:57:48.439Z,95.50
2022-12-20T11:00:50.654Z,95.43
2022-12-20T11:04:07.883Z,95.59
2022-12-20T11:07:28.763Z,95.64
2022-12-20T11:10:30.946Z,95.53
2022-12-20T11:13:33.057Z,95.52
2022-12-20T11:16:40.597Z,95.59
2022-12-20T11:20:21.119Z,95.26
2022-12-20T11:23:42.055Z,95.81
2022-12-20T11:26:58.017Z,95.30
2022-12-20T11:30:24.603Z,95.14
2022-12-20T11:34:02.107Z,95.31
2022-12-20T11:37:19.720Z,95.19
2022-12-20T11:40:28.287Z,95.59
2022-12-20T11:44:22.657Z,95.75
2022-12-20T11:47:21.979Z,95.69
2022-12-20T11:50:56.268Z,95.86
2022-12-20T11:54:08.616Z,95.26
2022-12-20T11:58:08.802Z,95.72
2022-12-20T12:01:14.203Z,95.76
2022-12-20T12:04:30.501Z,95.75
2022-12-20T12:07:35.723Z,95.86
2022-12-20T12:10:42.986Z,96.01
2022-12-20T12:13:45.497Z,95.99
2022-12-20T12:16:54.254Z,95.64
2022-12-20T12:20:09.605Z,95.91
2022-12-20T12:23:23.352Z,95.97
2022-12-20T12:26:28.778Z,96.20
2022-12-20T12:29:33.750Z,96.06
2022-12-20T12:32:49.393Z,96.14
2022-12-20T12:35:51.422Z,96.28
2022-12-20T12:39:12.985Z,96.31
2022-12-20T12:42:52.436Z,96.47
2022-12-20T12:46:00.291Z,96.67
2022-12-20T12:49:17.845Z,96.35
2022-12-20T12:52:35.595Z,96.69
2022-12-20T12:55:49.522Z,96.67
2022-12-20T12:59:06.893Z,96.84
2022-12-20T13:02:15.563Z,96.88
2022-12-20T13:05:31.187Z,96.70
2022-12-20T13:09:04.317Z,96.93
2022-12-20T13:12:37.119Z,97.01
2022-12-20T13:15:41.989Z,97.27
2022-12-20T13:19:02.983Z,97.49
2022-12-20T13:22:22.211Z,97.58
2022-12-20T13:25:31.666Z,97.54
2022-12-20T13:28:33.686Z,97.72
2022-12-20T13:31:36.209Z,97.97
2022-12-20T13:34:58.386Z,97.46
2022-12-20T13:38:12.310Z,97.37
2022-12-20T13:41:26.818Z,97.58
2022-12-20T13:44:53.309Z,97.73
2022-12-20T13:48:07.699Z,97.65
2022-12-20T13:51:23.003Z,97.74
2022-12-20T13:54:27.384Z,97.74
2022-12-20T13:57:45.386Z,97.82
2022-12-20T14:00:49.439Z,98.08
2022-12-20T14:03:53.667Z,98.08
2022-12-20T14:07:01.751Z,98.16
2022-12-20T14:10:17.613Z,98.53
2022-12-20T14:13:26.049Z,98.43
2022-12-20T14:16:31.050Z,98.55
2022-12-20T14:19:33.147Z,98.57
2022-12-20T14:22:36.886Z,98.68
2022-12-20T14:25:45.032Z,98.82
2022-12-20T14:28:50.184Z,98.75
2022-12-20T14:31:52.358Z,99.26
2022-12-20T14:34:54.756Z,99.08
2022-12-20T14:38:00.432Z,99.58
2022-12-20T14:41:02.595Z,99.49
2022-12-20T14:44:07.881Z,99.58
2022-12-20T14:47:21.513Z,99.58
2022-12-20T14:50:35.384Z,99.55
2022-12-20T14:53:40.373Z,99.51
2022-12-20T14:56:47.226Z,99.41
2022-12-20T15:00:13.990Z,99.85
2022-12-20T15:03:18.777Z,100.00
2022-12-20T15:06:42.755Z,100.00
2022-12-20T15:09:44.869Z,100.00
2022-12-20T15:12:47.098Z,100.00
2022-12-20T15:15:49.295Z,100.00
2022-12-20T15:18:56.695Z,100.00
2022-12-20T15:21:58.913Z,100.00
2022-12-20T15:25:00.977Z,100.00
2022-12-20T15:28:03.105Z,100.00
2022-12-20T15:31:05.400Z,100.00
2022-12-20T15:34:15.408Z,100.00
2022-12-20T15:37:18.920Z,100.00
2022-12-20T15:40:21.366Z,100.00
2022-12-20T15:43:25.021Z,100.00
2022-12-20T15:46:27.910Z,100.00
2022-12-20T15:49:31.951Z,100.00
2022-12-20T15:52:34.130Z,100.00
2022-12-20T15:55:39.911Z,100.00
2022-12-20T15:58:42.362Z,100.00
2022-12-20T16:01:44.531Z,100.00
2022-12-20T16:04:46.664Z,100.00
2022-12-20T16:07:48.781Z,100.00
2022-12-20T16:10:52.265Z,100.00
2022-12-20T16:13:56.288Z,100.00
2022-12-20T16:16:58.529Z,100.00
2022-12-20T16:20:00.898Z,100.00
2022-12-20T16:23:04.340Z,100.00
2022-12-20T16:26:06.710Z,100.00
2022-12-20T16:29:08.815Z,100.00
2022-12-20T16:32:16.836Z,100.00
2022-12-20T16:35:27.733Z,100.00
2022-12-20T16:38:29.835Z,100.00
2022-12-20T16:41:33.247Z,100.00
2022-12-20T16:44:35.323Z,100.00
2022-12-20T16:47:37.364Z,100.00
2022-12-20T16:50:43.588Z,100.00
2022-12-20T16:54:17.305Z,100.00
2022-12-20T16:57:09.416Z,100.00
2022-12-20T17:00:18.233Z,100.00
2022-12-20T17:03:20.499Z,100.00
2022-12-20T17:06:22.718Z,100.00
2022-12-20T17:09:24.762Z,100.00
2022-12-20T17:12:27.014Z,100.00
2022-12-20T17:15:32.066Z,100.00
2022-12-20T17:18:34.173Z,100.00
2022-12-20T17:25:00.381Z,100.00
2022-12-20T17:28:02.504Z,100.00
2022-12-20T17:31:26.191Z,100.00
2022-12-20T17:34:30.480Z,100.00
2022-12-20T17:37:32.516Z,100.00
2022-12-20T17:40:35.907Z,100.00
2022-12-20T17:43:37.950Z,100.00
2022-12-20T17:46:40.031Z,100.00
2022-12-20T17:49:42.103Z,100.00
2022-12-20T17:52:45.996Z,100.00
2022-12-20T17:55:48.026Z,100.00
2022-12-20T17:58:50.299Z,100.00
2022-12-20T18:01:52.754Z,100.00
2022-12-20T18:04:55.008Z,100.00
2022-12-20T18:07:57.158Z,100.00
2022-12-20T18:10:59.205Z,100.00
2022-12-20T18:14:03.848Z,100.00
2022-12-20T18:17:06.102Z,100.00
2022-12-20T18:20:10.051Z,100.00
2022-12-20T18:23:12.362Z,100.00
2022-12-20T18:26:17.479Z,100.00
2022-12-20T18:29:19.699Z,100.00
2022-12-20T18:32:22.050Z,100.00
2022-12-20T18:35:24.426Z,100.00
2022-12-20T18:38:26.655Z,100.00
2022-12-20T18:41:31.033Z,100.00
2022-12-20T18:44:36.097Z,100.00
2022-12-20T18:47:38.872Z,100.00
2022-12-20T18:50:41.108Z,100.00
2022-12-20T18:53:45.465Z,100.00
2022-12-20T18:56:49.628Z,100.00
2022-12-20T18:59:52.011Z,100.00
2022-12-20T19:02:59.656Z,100.00
2022-12-20T19:06:05.553Z,100.00
2022-12-20T19:09:10.525Z,100.00
2022-12-20T19:12:12.999Z,100.00
2022-12-20T19:15:15.389Z,100.00
2022-12-20T19:18:17.879Z,100.00
2022-12-20T19:24:50.492Z,100.00
2022-12-20T19:27:52.762Z,100.00
2022-12-20T19:30:56.344Z,100.00
2022-12-20T19:34:05.654Z,100.00
2022-12-20T19:37:08.162Z,100.00
2022-12-20T19:40:12.099Z,100.00
2022-12-20T19:43:14.189Z,100.00
2022-12-20T19:46:16.759Z,100.00
2022-12-20T19:49:21.363Z,100.00
2022-12-20T19:52:28.409Z,100.00
2022-12-20T19:55:31.313Z,100.00
2022-12-20T19:58:33.879Z,100.00
2022-12-20T20:01:36.226Z,100.00
2022-12-20T20:04:38.946Z,100.00
2022-12-20T20:07:41.499Z,100.00
2022-12-20T20:10:45.113Z,100.00
2022-12-20T20:13:48.053Z,100.00
2022-12-20T20:16:50.902Z,100.00
2022-12-20T20:19:53.063Z,100.00
2022-12-20T20:22:55.331Z,100.00
2022-12-20T20:25:59.077Z,100.00
2022-12-20T20:29:02.379Z,100.00
2022-12-20T20:32:05.507Z,100.00
2022-12-20T20:35:09.237Z,100.00
2022-12-20T20:38:12.416Z,100.00
2022-12-20T20:41:15.095Z,100.00
2022-12-20T20:44:17.212Z,100.00
2022-12-20T20:47:20.810Z,100.00
2022-12-20T20:50:22.965Z,100.00
2022-12-20T20:53:29.508Z,100.00
2022-12-20T20:56:36.500Z,100.00
2022-12-20T20:59:38.562Z,100.00
2022-12-20T21:02:40.882Z,100.00
2022-12-20T21:09:07.152Z,100.00
2022-12-20T21:12:09.467Z,100.00
2022-12-20T21:15:22.311Z,100.00
2022-12-20T21:18:24.925Z,100.00
2022-12-20T21:21:27.407Z,100.00
2022-12-20T21:24:29.705Z,100.00
2022-12-20T21:27:31.910Z,100.00
2022-12-20T21:30:34.964Z,100.00
2022-12-20T21:33:37.741Z,100.00
2022-12-20T21:36:39.753Z,100.00
2022-12-20T21:39:41.845Z,100.00
2022-12-20T21:42:43.925Z,100.00
2022-12-20T21:45:50.546Z,100.00
2022-12-20T21:48:52.705Z,100.00
2022-12-20T21:51:56.576Z,100.00
2022-12-20T21:54:58.565Z,100.00
2022-12-20T21:58:00.617Z,100.00
2022-12-20T22:01:08.490Z,100.00
2022-12-20T22:04:12.180Z,100.00
2022-12-20T22:07:14.314Z,100.00
2022-12-20T22:10:16.419Z,100.00
2022-12-20T22:13:18.488Z,100.00
2022-12-20T22:16:21.595Z,100.00
2022-12-20T22:19:23.743Z,100.00
2022-12-20T22:22:26.210Z,100.00
2022-12-20T22:25:28.471Z,100.00
2022-12-20T22:28:30.654Z,100.00
2022-12-20T22:31:33.760Z,100.00
2022-12-20T22:34:35.814Z,100.00
2022-12-20T22:37:37.889Z,100.00
2022-12-20T22:40:39.901Z,100.00
2022-12-20T22:43:44.699Z,100.00
2022-12-20T22:50:06.407Z,100.00
2022-12-20T22:53:08.375Z,100.00
2022-12-20T22:56:11.237Z,100.00
2022-12-20T22:59:13.268Z,100.00
2022-12-20T23:02:15.425Z,100.00
2022-12-20T23:05:17.517Z,100.00
2022-12-20T23:08:19.919Z,100.00
2022-12-20T23:11:44.612Z,100.00
2022-12-20T23:15:05.191Z,100.00
2022-12-20T23:18:07.348Z,100.00
2022-12-20T23:21:27.995Z,100.00
2022-12-20T23:24:30.116Z,100.00
2022-12-20T23:27:32.190Z,100.00
2022-12-20T23:30:34.242Z,100.00
2022-12-20T23:33:36.774Z,100.00
2022-12-20T23:36:38.822Z,100.00
2022-12-20T23:39:40.814Z,100.00
2022-12-20T23:42:43.095Z,100.00
2022-12-20T23:45:45.335Z,100.00
2022-12-20T23:48:47.602Z,100.00
2022-12-20T23:51:49.870Z,100.00
2022-12-20T23:54:51.817Z,100.00
2022-12-20T23:57:53.844Z,100.00
